sensor_id;sensor_type;location;lat;lon;timestamp;temperature;humidity
44990;DHT22;30723;51.206;3.326;2022-11-20T00:00:50;5.90;99.90
44990;DHT22;30723;51.206;3.326;2022-11-20T00:03:16;5.80;99.90
44990;DHT22;30723;51.206;3.326;2022-11-20T00:05:43;5.90;99.90
44990;DHT22;30723;51.206;3.326;2022-11-20T00:08:09;5.70;99.90
44990;DHT22;30723;51.206;3.326;2022-11-20T00:10:38;5.70;99.90
44990;DHT22;30723;51.206;3.326;2022-11-20T00:13:05;5.60;99.90
44990;DHT22;30723;51.206;3.326;2022-11-20T00:15:31;5.60;99.90
44990;DHT22;30723;51.206;3.326;2022-11-20T00:17:56;5.60;99.90
44990;DHT22;30723;51.206;3.326;2022-11-20T00:20:22;5.60;99.90
44990;DHT22;30723;51.206;3.326;2022-11-20T00:22:49;5.50;99.90
44990;DHT22;30723;51.206;3.326;2022-11-20T00:25:15;5.40;99.90
44990;DHT22;30723;51.206;3.326;2022-11-20T00:27:41;5.30;99.90
44990;DHT22;30723;51.206;3.326;2022-11-20T00:30:07;5.30;99.90
44990;DHT22;30723;51.206;3.326;2022-11-20T00:32:33;5.30;99.90
44990;DHT22;30723;51.206;3.326;2022-11-20T00:34:59;5.30;99.90
44990;DHT22;30723;51.206;3.326;2022-11-20T00:37:24;5.20;99.90
44990;DHT22;30723;51.206;3.326;2022-11-20T00:39:50;5.10;99.90
44990;DHT22;30723;51.206;3.326;2022-11-20T00:42:16;5.10;99.90
44990;DHT22;30723;51.206;3.326;2022-11-20T00:44:41;5.00;99.90
44990;DHT22;30723;51.206;3.326;2022-11-20T00:47:07;5.00;99.90
44990;DHT22;30723;51.206;3.326;2022-11-20T00:49:33;5.00;99.90
44990;DHT22;30723;51.206;3.326;2022-11-20T00:51:59;5.00;99.90
44990;DHT22;30723;51.206;3.326;2022-11-20T00:54:24;4.90;99.90
44990;DHT22;30723;51.206;3.326;2022-11-20T00:56:52;4.90;99.90
44990;DHT22;30723;51.206;3.326;2022-11-20T00:59:18;4.80;99.90
44990;DHT22;30723;51.206;3.326;2022-11-20T01:01:44;4.80;99.90
44990;DHT22;30723;51.206;3.326;2022-11-20T01:04:10;4.80;99.90
44990;DHT22;30723;51.206;3.326;2022-11-20T01:06:37;4.80;99.90
44990;DHT22;30723;51.206;3.326;2022-11-20T01:09:06;4.80;99.90
44990;DHT22;30723;51.206;3.326;2022-11-20T01:11:35;4.80;99.90
44990;DHT22;30723;51.206;3.326;2022-11-20T01:14:02;4.90;99.90
44990;DHT22;30723;51.206;3.326;2022-11-20T01:18:57;5.10;99.90
44990;DHT22;30723;51.206;3.326;2022-11-20T01:21:30;5.20;99.90
44990;DHT22;30723;51.206;3.326;2022-11-20T01:23:57;5.20;99.90
44990;DHT22;30723;51.206;3.326;2022-11-20T01:26:25;5.30;99.90
44990;DHT22;30723;51.206;3.326;2022-11-20T01:28:52;5.40;99.90
44990;DHT22;30723;51.206;3.326;2022-11-20T01:31:23;5.40;99.90
44990;DHT22;30723;51.206;3.326;2022-11-20T01:33:52;5.40;99.90
44990;DHT22;30723;51.206;3.326;2022-11-20T01:36:20;5.40;99.90
44990;DHT22;30723;51.206;3.326;2022-11-20T01:38:46;5.40;99.90
44990;DHT22;30723;51.206;3.326;2022-11-20T01:41:14;5.30;99.90
44990;DHT22;30723;51.206;3.326;2022-11-20T01:44:11;5.30;99.90
44990;DHT22;30723;51.206;3.326;2022-11-20T01:46:38;5.30;99.90
44990;DHT22;30723;51.206;3.326;2022-11-20T01:49:18;5.40;99.90
44990;DHT22;30723;51.206;3.326;2022-11-20T01:51:58;5.50;99.90
44990;DHT22;30723;51.206;3.326;2022-11-20T01:54:33;5.50;99.90
44990;DHT22;30723;51.206;3.326;2022-11-20T01:57:01;5.50;99.90
44990;DHT22;30723;51.206;3.326;2022-11-20T01:59:28;5.40;99.90
44990;DHT22;30723;51.206;3.326;2022-11-20T02:01:55;5.50;99.90
44990;DHT22;30723;51.206;3.326;2022-11-20T02:04:22;5.40;99.90
44990;DHT22;30723;51.206;3.326;2022-11-20T02:06:55;5.40;99.90
44990;DHT22;30723;51.206;3.326;2022-11-20T02:09:22;5.60;99.90
44990;DHT22;30723;51.206;3.326;2022-11-20T02:11:48;5.60;99.90
44990;DHT22;30723;51.206;3.326;2022-11-20T02:14:14;5.60;99.90
44990;DHT22;30723;51.206;3.326;2022-11-20T02:16:44;5.60;99.90
44990;DHT22;30723;51.206;3.326;2022-11-20T02:19:24;5.60;99.90
44990;DHT22;30723;51.206;3.326;2022-11-20T02:24:21;5.70;99.90
44990;DHT22;30723;51.206;3.326;2022-11-20T02:29:37;5.80;99.90
44990;DHT22;30723;51.206;3.326;2022-11-20T02:32:05;5.80;99.90
44990;DHT22;30723;51.206;3.326;2022-11-20T02:34:30;5.90;99.90
44990;DHT22;30723;51.206;3.326;2022-11-20T02:36:57;5.80;99.90
44990;DHT22;30723;51.206;3.326;2022-11-20T02:39:25;5.80;99.90
44990;DHT22;30723;51.206;3.326;2022-11-20T02:41:53;5.80;99.90
44990;DHT22;30723;51.206;3.326;2022-11-20T02:44:21;5.80;99.90
44990;DHT22;30723;51.206;3.326;2022-11-20T02:46:46;5.80;99.90
44990;DHT22;30723;51.206;3.326;2022-11-20T02:49:12;5.80;99.90
44990;DHT22;30723;51.206;3.326;2022-11-20T02:51:38;5.80;99.90
44990;DHT22;30723;51.206;3.326;2022-11-20T02:54:04;5.90;99.90
44990;DHT22;30723;51.206;3.326;2022-11-20T02:56:30;5.90;99.90
44990;DHT22;30723;51.206;3.326;2022-11-20T02:58:55;5.90;99.90
44990;DHT22;30723;51.206;3.326;2022-11-20T03:01:22;5.90;99.90
44990;DHT22;30723;51.206;3.326;2022-11-20T03:03:47;5.90;99.90
44990;DHT22;30723;51.206;3.326;2022-11-20T03:06:17;5.90;99.90
44990;DHT22;30723;51.206;3.326;2022-11-20T03:08:43;5.90;99.90
44990;DHT22;30723;51.206;3.326;2022-11-20T03:11:09;5.90;99.90
44990;DHT22;30723;51.206;3.326;2022-11-20T03:13:35;5.90;99.90
44990;DHT22;30723;51.206;3.326;2022-11-20T03:16:13;5.90;99.90
44990;DHT22;30723;51.206;3.326;2022-11-20T03:18:40;5.80;99.90
44990;DHT22;30723;51.206;3.326;2022-11-20T03:21:07;5.80;99.90
44990;DHT22;30723;51.206;3.326;2022-11-20T03:23:33;5.60;99.90
44990;DHT22;30723;51.206;3.326;2022-11-20T03:26:14;5.60;99.90
44990;DHT22;30723;51.206;3.326;2022-11-20T03:28:42;5.60;99.90
44990;DHT22;30723;51.206;3.326;2022-11-20T03:31:12;5.60;99.90
44990;DHT22;30723;51.206;3.326;2022-11-20T03:33:39;5.50;99.90
44990;DHT22;30723;51.206;3.326;2022-11-20T03:36:08;5.60;99.90
44990;DHT22;30723;51.206;3.326;2022-11-20T03:38:34;5.70;99.90
44990;DHT22;30723;51.206;3.326;2022-11-20T03:41:02;5.70;99.90
44990;DHT22;30723;51.206;3.326;2022-11-20T03:43:28;5.70;99.90
44990;DHT22;30723;51.206;3.326;2022-11-20T03:45:55;5.70;99.90
44990;DHT22;30723;51.206;3.326;2022-11-20T03:48:20;5.70;99.90
44990;DHT22;30723;51.206;3.326;2022-11-20T03:50:46;5.70;99.90
44990;DHT22;30723;51.206;3.326;2022-11-20T03:53:15;5.80;99.90
44990;DHT22;30723;51.206;3.326;2022-11-20T03:55:41;5.80;99.90
44990;DHT22;30723;51.206;3.326;2022-11-20T03:58:08;5.90;99.90
44990;DHT22;30723;51.206;3.326;2022-11-20T04:00:33;5.70;99.90
44990;DHT22;30723;51.206;3.326;2022-11-20T04:03:03;5.60;99.90
44990;DHT22;30723;51.206;3.326;2022-11-20T04:05:28;5.60;99.90
44990;DHT22;30723;51.206;3.326;2022-11-20T04:07:54;5.70;99.90
44990;DHT22;30723;51.206;3.326;2022-11-20T04:10:20;5.70;99.90
44990;DHT22;30723;51.206;3.326;2022-11-20T04:12:46;5.70;99.90
44990;DHT22;30723;51.206;3.326;2022-11-20T04:15:14;5.70;99.90
44990;DHT22;30723;51.206;3.326;2022-11-20T04:17:39;5.50;99.90
44990;DHT22;30723;51.206;3.326;2022-11-20T04:20:06;5.40;99.90
44990;DHT22;30723;51.206;3.326;2022-11-20T04:22:31;5.40;99.90
44990;DHT22;30723;51.206;3.326;2022-11-20T04:24:57;5.50;99.90
44990;DHT22;30723;51.206;3.326;2022-11-20T04:27:23;5.50;99.90
44990;DHT22;30723;51.206;3.326;2022-11-20T04:29:49;5.60;99.90
44990;DHT22;30723;51.206;3.326;2022-11-20T04:32:14;5.50;99.90
44990;DHT22;30723;51.206;3.326;2022-11-20T04:34:40;5.60;99.90
44990;DHT22;30723;51.206;3.326;2022-11-20T04:37:06;5.50;99.90
44990;DHT22;30723;51.206;3.326;2022-11-20T04:39:31;5.50;99.90
44990;DHT22;30723;51.206;3.326;2022-11-20T04:41:57;5.40;99.90
44990;DHT22;30723;51.206;3.326;2022-11-20T04:44:41;5.40;99.90
44990;DHT22;30723;51.206;3.326;2022-11-20T04:47:07;5.40;99.90
44990;DHT22;30723;51.206;3.326;2022-11-20T04:49:33;5.40;99.90
44990;DHT22;30723;51.206;3.326;2022-11-20T04:51:59;5.40;99.90
44990;DHT22;30723;51.206;3.326;2022-11-20T04:54:25;5.40;99.90
44990;DHT22;30723;51.206;3.326;2022-11-20T04:56:51;5.30;99.90
44990;DHT22;30723;51.206;3.326;2022-11-20T04:59:16;5.30;99.90
44990;DHT22;30723;51.206;3.326;2022-11-20T05:01:42;5.40;99.90
44990;DHT22;30723;51.206;3.326;2022-11-20T05:04:08;5.40;99.90
44990;DHT22;30723;51.206;3.326;2022-11-20T05:06:34;5.50;99.90
44990;DHT22;30723;51.206;3.326;2022-11-20T05:09:00;5.60;99.90
44990;DHT22;30723;51.206;3.326;2022-11-20T05:11:26;5.60;99.90
44990;DHT22;30723;51.206;3.326;2022-11-20T05:13:54;5.60;99.90
44990;DHT22;30723;51.206;3.326;2022-11-20T05:16:24;5.60;99.90
44990;DHT22;30723;51.206;3.326;2022-11-20T05:18:52;5.70;99.90
44990;DHT22;30723;51.206;3.326;2022-11-20T05:21:18;5.80;99.90
44990;DHT22;30723;51.206;3.326;2022-11-20T05:23:45;5.80;99.90
44990;DHT22;30723;51.206;3.326;2022-11-20T05:26:19;5.80;99.90
44990;DHT22;30723;51.206;3.326;2022-11-20T05:28:47;5.90;99.90
44990;DHT22;30723;51.206;3.326;2022-11-20T05:31:16;5.80;99.90
44990;DHT22;30723;51.206;3.326;2022-11-20T05:33:43;5.80;99.90
44990;DHT22;30723;51.206;3.326;2022-11-20T05:36:11;5.80;99.90
44990;DHT22;30723;51.206;3.326;2022-11-20T05:38:37;5.80;99.90
44990;DHT22;30723;51.206;3.326;2022-11-20T05:41:05;5.80;99.90
44990;DHT22;30723;51.206;3.326;2022-11-20T05:43:35;5.90;99.90
44990;DHT22;30723;51.206;3.326;2022-11-20T05:46:02;5.90;99.90
44990;DHT22;30723;51.206;3.326;2022-11-20T05:48:27;5.90;99.90
44990;DHT22;30723;51.206;3.326;2022-11-20T05:50:53;5.90;99.90
44990;DHT22;30723;51.206;3.326;2022-11-20T05:53:19;5.90;99.90
44990;DHT22;30723;51.206;3.326;2022-11-20T05:55:45;5.90;99.90
44990;DHT22;30723;51.206;3.326;2022-11-20T05:58:13;6.00;99.90
44990;DHT22;30723;51.206;3.326;2022-11-20T06:00:38;6.10;99.90
44990;DHT22;30723;51.206;3.326;2022-11-20T06:03:04;6.00;99.90
44990;DHT22;30723;51.206;3.326;2022-11-20T06:05:30;6.10;99.90
44990;DHT22;30723;51.206;3.326;2022-11-20T06:07:56;6.10;99.90
44990;DHT22;30723;51.206;3.326;2022-11-20T06:10:21;6.10;99.90
44990;DHT22;30723;51.206;3.326;2022-11-20T06:12:47;6.20;99.90
44990;DHT22;30723;51.206;3.326;2022-11-20T06:15:13;6.20;99.90
44990;DHT22;30723;51.206;3.326;2022-11-20T06:17:38;6.20;99.90
44990;DHT22;30723;51.206;3.326;2022-11-20T06:20:05;6.20;99.90
44990;DHT22;30723;51.206;3.326;2022-11-20T06:22:32;6.20;99.90
44990;DHT22;30723;51.206;3.326;2022-11-20T06:24:57;6.20;99.90
44990;DHT22;30723;51.206;3.326;2022-11-20T06:27:23;6.20;99.90
44990;DHT22;30723;51.206;3.326;2022-11-20T06:29:49;6.10;99.90
44990;DHT22;30723;51.206;3.326;2022-11-20T06:32:15;6.10;99.90
44990;DHT22;30723;51.206;3.326;2022-11-20T06:34:40;6.20;99.90
44990;DHT22;30723;51.206;3.326;2022-11-20T06:37:06;6.30;99.90
44990;DHT22;30723;51.206;3.326;2022-11-20T06:39:32;6.40;99.90
44990;DHT22;30723;51.206;3.326;2022-11-20T06:41:57;6.30;99.90
44990;DHT22;30723;51.206;3.326;2022-11-20T06:44:23;6.30;99.90
44990;DHT22;30723;51.206;3.326;2022-11-20T06:46:49;6.30;99.90
44990;DHT22;30723;51.206;3.326;2022-11-20T06:49:14;6.40;99.90
44990;DHT22;30723;51.206;3.326;2022-11-20T06:51:40;6.40;99.90
44990;DHT22;30723;51.206;3.326;2022-11-20T06:54:06;6.40;99.90
44990;DHT22;30723;51.206;3.326;2022-11-20T06:56:32;6.40;99.90
44990;DHT22;30723;51.206;3.326;2022-11-20T06:58:57;6.50;99.90
44990;DHT22;30723;51.206;3.326;2022-11-20T07:01:23;6.50;99.90
44990;DHT22;30723;51.206;3.326;2022-11-20T07:03:49;6.40;99.90
44990;DHT22;30723;51.206;3.326;2022-11-20T07:06:16;6.50;99.90
44990;DHT22;30723;51.206;3.326;2022-11-20T07:08:42;6.50;99.90
44990;DHT22;30723;51.206;3.326;2022-11-20T07:11:08;6.50;99.90
44990;DHT22;30723;51.206;3.326;2022-11-20T07:13:34;6.60;99.90
44990;DHT22;30723;51.206;3.326;2022-11-20T07:16:01;6.60;99.90
44990;DHT22;30723;51.206;3.326;2022-11-20T07:18:27;6.60;99.90
44990;DHT22;30723;51.206;3.326;2022-11-20T07:20:53;6.50;99.90
44990;DHT22;30723;51.206;3.326;2022-11-20T07:23:19;6.50;99.90
44990;DHT22;30723;51.206;3.326;2022-11-20T07:25:44;6.50;99.90
44990;DHT22;30723;51.206;3.326;2022-11-20T07:28:10;6.50;99.90
44990;DHT22;30723;51.206;3.326;2022-11-20T07:30:36;6.60;99.90
44990;DHT22;30723;51.206;3.326;2022-11-20T07:33:02;6.60;99.90
44990;DHT22;30723;51.206;3.326;2022-11-20T07:35:27;6.70;99.90
44990;DHT22;30723;51.206;3.326;2022-11-20T07:37:53;6.60;99.90
44990;DHT22;30723;51.206;3.326;2022-11-20T07:40:19;6.60;99.90
44990;DHT22;30723;51.206;3.326;2022-11-20T07:42:53;6.60;99.90
44990;DHT22;30723;51.206;3.326;2022-11-20T07:45:20;6.70;99.90
44990;DHT22;30723;51.206;3.326;2022-11-20T07:47:46;6.70;99.90
44990;DHT22;30723;51.206;3.326;2022-11-20T07:50:12;6.70;99.90
44990;DHT22;30723;51.206;3.326;2022-11-20T07:52:38;6.80;99.90
44990;DHT22;30723;51.206;3.326;2022-11-20T07:55:04;6.80;99.90
44990;DHT22;30723;51.206;3.326;2022-11-20T07:57:30;6.80;99.90
44990;DHT22;30723;51.206;3.326;2022-11-20T07:59:56;6.90;99.90
44990;DHT22;30723;51.206;3.326;2022-11-20T08:02:22;6.90;99.90
44990;DHT22;30723;51.206;3.326;2022-11-20T08:04:47;6.90;99.90
44990;DHT22;30723;51.206;3.326;2022-11-20T08:07:13;6.90;99.90
44990;DHT22;30723;51.206;3.326;2022-11-20T08:09:39;7.00;99.90
44990;DHT22;30723;51.206;3.326;2022-11-20T08:12:05;7.00;99.90
44990;DHT22;30723;51.206;3.326;2022-11-20T08:14:49;7.00;99.90
44990;DHT22;30723;51.206;3.326;2022-11-20T08:17:15;6.90;99.90
44990;DHT22;30723;51.206;3.326;2022-11-20T08:19:41;7.00;99.90
44990;DHT22;30723;51.206;3.326;2022-11-20T08:22:06;7.00;99.90
44990;DHT22;30723;51.206;3.326;2022-11-20T08:24:32;7.00;99.90
44990;DHT22;30723;51.206;3.326;2022-11-20T08:26:58;7.00;99.90
44990;DHT22;30723;51.206;3.326;2022-11-20T08:29:25;7.00;99.90
44990;DHT22;30723;51.206;3.326;2022-11-20T08:31:51;7.10;99.90
44990;DHT22;30723;51.206;3.326;2022-11-20T08:34:17;7.00;99.90
44990;DHT22;30723;51.206;3.326;2022-11-20T08:36:43;7.10;99.90
44990;DHT22;30723;51.206;3.326;2022-11-20T08:39:12;7.10;99.90
44990;DHT22;30723;51.206;3.326;2022-11-20T08:41:38;7.10;99.90
44990;DHT22;30723;51.206;3.326;2022-11-20T08:44:06;7.10;99.90
44990;DHT22;30723;51.206;3.326;2022-11-20T08:46:37;7.20;99.90
44990;DHT22;30723;51.206;3.326;2022-11-20T08:49:04;7.20;99.90
44990;DHT22;30723;51.206;3.326;2022-11-20T08:51:30;7.20;99.90
44990;DHT22;30723;51.206;3.326;2022-11-20T08:53:56;7.30;99.90
44990;DHT22;30723;51.206;3.326;2022-11-20T08:56:22;7.30;99.90
44990;DHT22;30723;51.206;3.326;2022-11-20T08:58:49;7.30;99.90
44990;DHT22;30723;51.206;3.326;2022-11-20T09:01:15;7.30;99.90
44990;DHT22;30723;51.206;3.326;2022-11-20T09:03:40;7.30;99.90
44990;DHT22;30723;51.206;3.326;2022-11-20T09:06:07;7.40;99.90
44990;DHT22;30723;51.206;3.326;2022-11-20T09:08:34;7.50;99.90
44990;DHT22;30723;51.206;3.326;2022-11-20T09:11:02;7.50;99.90
44990;DHT22;30723;51.206;3.326;2022-11-20T09:13:28;7.60;99.90
44990;DHT22;30723;51.206;3.326;2022-11-20T09:15:55;7.70;99.90
44990;DHT22;30723;51.206;3.326;2022-11-20T09:18:22;7.70;99.90
44990;DHT22;30723;51.206;3.326;2022-11-20T09:20:48;7.70;99.90
44990;DHT22;30723;51.206;3.326;2022-11-20T09:23:14;7.70;99.90
44990;DHT22;30723;51.206;3.326;2022-11-20T09:25:40;7.70;99.90
44990;DHT22;30723;51.206;3.326;2022-11-20T09:28:06;7.70;99.90
44990;DHT22;30723;51.206;3.326;2022-11-20T09:30:32;7.80;99.90
44990;DHT22;30723;51.206;3.326;2022-11-20T09:32:58;7.90;99.90
44990;DHT22;30723;51.206;3.326;2022-11-20T09:35:23;7.90;99.90
44990;DHT22;30723;51.206;3.326;2022-11-20T09:37:49;8.00;99.90
44990;DHT22;30723;51.206;3.326;2022-11-20T09:40:21;8.10;99.90
44990;DHT22;30723;51.206;3.326;2022-11-20T09:43:38;8.10;99.90
44990;DHT22;30723;51.206;3.326;2022-11-20T09:51:25;8.30;99.90
44990;DHT22;30723;51.206;3.326;2022-11-20T09:56:43;8.40;99.90
44990;DHT22;30723;51.206;3.326;2022-11-20T10:02:03;8.60;99.90
44990;DHT22;30723;51.206;3.326;2022-11-20T10:04:33;8.50;99.90
44990;DHT22;30723;51.206;3.326;2022-11-20T10:07:22;8.60;99.90
44990;DHT22;30723;51.206;3.326;2022-11-20T10:09:54;8.60;99.90
44990;DHT22;30723;51.206;3.326;2022-11-20T10:18:13;8.90;99.90
44990;DHT22;30723;51.206;3.326;2022-11-20T10:24:02;9.10;99.90
44990;DHT22;30723;51.206;3.326;2022-11-20T10:29:19;9.40;99.90
44990;DHT22;30723;51.206;3.326;2022-11-20T10:31:56;9.60;99.90
44990;DHT22;30723;51.206;3.326;2022-11-20T10:37:15;10.20;99.90
44990;DHT22;30723;51.206;3.326;2022-11-20T10:43:13;10.60;99.90
44990;DHT22;30723;51.206;3.326;2022-11-20T10:45:47;10.60;99.90
44990;DHT22;30723;51.206;3.326;2022-11-20T10:48:22;10.70;99.90
44990;DHT22;30723;51.206;3.326;2022-11-20T10:51:41;11.10;99.90
44990;DHT22;30723;51.206;3.326;2022-11-20T10:59:57;11.20;99.90
44990;DHT22;30723;51.206;3.326;2022-11-20T11:02:41;10.80;99.90
44990;DHT22;30723;51.206;3.326;2022-11-20T11:07:58;10.50;99.90
44990;DHT22;30723;51.206;3.326;2022-11-20T11:10:34;10.40;99.90
44990;DHT22;30723;51.206;3.326;2022-11-20T11:13:02;10.20;99.90
44990;DHT22;30723;51.206;3.326;2022-11-20T11:15:45;10.00;99.90
44990;DHT22;30723;51.206;3.326;2022-11-20T11:18:11;9.80;99.90
44990;DHT22;30723;51.206;3.326;2022-11-20T11:20:50;9.70;99.90
44990;DHT22;30723;51.206;3.326;2022-11-20T11:26:04;9.50;99.90
44990;DHT22;30723;51.206;3.326;2022-11-20T11:28:30;9.40;99.90
44990;DHT22;30723;51.206;3.326;2022-11-20T11:30:57;9.30;99.90
44990;DHT22;30723;51.206;3.326;2022-11-20T11:33:31;9.20;99.90
44990;DHT22;30723;51.206;3.326;2022-11-20T11:36:04;9.10;99.90
44990;DHT22;30723;51.206;3.326;2022-11-20T11:38:41;9.10;99.90
44990;DHT22;30723;51.206;3.326;2022-11-20T11:41:20;9.00;99.90
44990;DHT22;30723;51.206;3.326;2022-11-20T11:46:36;8.80;99.90
44990;DHT22;30723;51.206;3.326;2022-11-20T11:52:07;8.80;99.90
44990;DHT22;30723;51.206;3.326;2022-11-20T11:54:41;8.80;99.90
44990;DHT22;30723;51.206;3.326;2022-11-20T11:57:49;8.80;99.90
44990;DHT22;30723;51.206;3.326;2022-11-20T12:00:18;8.80;99.90
44990;DHT22;30723;51.206;3.326;2022-11-20T12:07:53;8.80;99.90
44990;DHT22;30723;51.206;3.326;2022-11-20T12:10:37;8.80;99.90
44990;DHT22;30723;51.206;3.326;2022-11-20T12:13:22;8.80;99.90
44990;DHT22;30723;51.206;3.326;2022-11-20T12:15:51;8.80;99.90
44990;DHT22;30723;51.206;3.326;2022-11-20T12:18:21;8.80;99.90
44990;DHT22;30723;51.206;3.326;2022-11-20T12:21:02;8.70;99.90
44990;DHT22;30723;51.206;3.326;2022-11-20T12:24:10;8.70;99.90
44990;DHT22;30723;51.206;3.326;2022-11-20T12:33:15;8.70;99.90
44990;DHT22;30723;51.206;3.326;2022-11-20T12:38:45;8.60;99.90
44990;DHT22;30723;51.206;3.326;2022-11-20T12:44:40;8.60;99.90
44990;DHT22;30723;51.206;3.326;2022-11-20T12:53:22;8.70;99.90
44990;DHT22;30723;51.206;3.326;2022-11-20T13:01:38;8.70;99.90
44990;DHT22;30723;51.206;3.326;2022-11-20T13:07:07;8.60;99.90
44990;DHT22;30723;51.206;3.326;2022-11-20T13:09:42;8.70;99.90
44990;DHT22;30723;51.206;3.326;2022-11-20T13:12:11;8.70;99.90
44990;DHT22;30723;51.206;3.326;2022-11-20T13:14:46;8.70;99.90
44990;DHT22;30723;51.206;3.326;2022-11-20T13:17:36;8.70;99.90
44990;DHT22;30723;51.206;3.326;2022-11-20T13:20:06;8.70;99.90
44990;DHT22;30723;51.206;3.326;2022-11-20T13:22:54;8.80;99.90
44990;DHT22;30723;51.206;3.326;2022-11-20T13:25:34;8.80;99.90
44990;DHT22;30723;51.206;3.326;2022-11-20T13:28:05;8.80;99.90
44990;DHT22;30723;51.206;3.326;2022-11-20T13:30:53;8.90;99.90
44990;DHT22;30723;51.206;3.326;2022-11-20T13:33:38;9.00;99.90
44990;DHT22;30723;51.206;3.326;2022-11-20T13:36:23;9.00;99.90
44990;DHT22;30723;51.206;3.326;2022-11-20T13:38:53;9.00;99.90
44990;DHT22;30723;51.206;3.326;2022-11-20T13:41:31;9.10;99.90
44990;DHT22;30723;51.206;3.326;2022-11-20T13:44:30;9.10;99.90
44990;DHT22;30723;51.206;3.326;2022-11-20T13:46:58;9.10;99.90
44990;DHT22;30723;51.206;3.326;2022-11-20T13:49:42;9.10;99.90
44990;DHT22;30723;51.206;3.326;2022-11-20T13:57:36;9.10;99.90
44990;DHT22;30723;51.206;3.326;2022-11-20T14:00:12;9.20;99.90
44990;DHT22;30723;51.206;3.326;2022-11-20T14:02:39;9.30;99.90
44990;DHT22;30723;51.206;3.326;2022-11-20T14:05:05;9.30;99.90
44990;DHT22;30723;51.206;3.326;2022-11-20T14:07:41;9.30;99.90
44990;DHT22;30723;51.206;3.326;2022-11-20T14:10:26;9.30;99.90
44990;DHT22;30723;51.206;3.326;2022-11-20T14:12:52;9.40;99.90
44990;DHT22;30723;51.206;3.326;2022-11-20T14:15:27;9.60;99.90
44990;DHT22;30723;51.206;3.326;2022-11-20T14:17:53;9.70;99.90
44990;DHT22;30723;51.206;3.326;2022-11-20T14:20:19;9.70;99.90
44990;DHT22;30723;51.206;3.326;2022-11-20T14:22:53;9.70;99.90
44990;DHT22;30723;51.206;3.326;2022-11-20T14:25:24;9.80;99.90
44990;DHT22;30723;51.206;3.326;2022-11-20T14:27:57;9.90;99.90
44990;DHT22;30723;51.206;3.326;2022-11-20T14:30:26;9.90;99.90
44990;DHT22;30723;51.206;3.326;2022-11-20T14:32:57;9.90;99.90
44990;DHT22;30723;51.206;3.326;2022-11-20T14:35:28;9.90;99.90
44990;DHT22;30723;51.206;3.326;2022-11-20T14:37:55;9.90;99.90
44990;DHT22;30723;51.206;3.326;2022-11-20T14:40:34;10.00;99.90
44990;DHT22;30723;51.206;3.326;2022-11-20T14:43:04;10.00;99.90
44990;DHT22;30723;51.206;3.326;2022-11-20T14:45:40;9.90;99.90
44990;DHT22;30723;51.206;3.326;2022-11-20T14:48:09;9.80;99.90
44990;DHT22;30723;51.206;3.326;2022-11-20T14:50:38;9.80;99.90
44990;DHT22;30723;51.206;3.326;2022-11-20T14:53:04;9.80;99.90
44990;DHT22;30723;51.206;3.326;2022-11-20T14:58:06;9.90;99.90
44990;DHT22;30723;51.206;3.326;2022-11-20T15:00:34;9.90;99.90
44990;DHT22;30723;51.206;3.326;2022-11-20T15:03:00;9.80;99.90
44990;DHT22;30723;51.206;3.326;2022-11-20T15:05:45;9.90;99.90
44990;DHT22;30723;51.206;3.326;2022-11-20T15:08:11;9.90;99.90
44990;DHT22;30723;51.206;3.326;2022-11-20T15:10:37;9.90;99.90
44990;DHT22;30723;51.206;3.326;2022-11-20T15:13:12;9.80;99.90
44990;DHT22;30723;51.206;3.326;2022-11-20T15:15:50;9.90;99.90
44990;DHT22;30723;51.206;3.326;2022-11-20T15:18:21;10.00;99.90
44990;DHT22;30723;51.206;3.326;2022-11-20T15:20:48;9.90;99.90
44990;DHT22;30723;51.206;3.326;2022-11-20T15:23:16;9.90;99.90
44990;DHT22;30723;51.206;3.326;2022-11-20T15:25:44;9.90;99.90
44990;DHT22;30723;51.206;3.326;2022-11-20T15:28:20;9.80;99.90
44990;DHT22;30723;51.206;3.326;2022-11-20T15:30:47;9.80;99.90
44990;DHT22;30723;51.206;3.326;2022-11-20T15:33:14;9.80;99.90
44990;DHT22;30723;51.206;3.326;2022-11-20T15:35:40;9.80;99.90
44990;DHT22;30723;51.206;3.326;2022-11-20T15:38:06;9.80;99.90
44990;DHT22;30723;51.206;3.326;2022-11-20T15:40:32;9.70;99.90
44990;DHT22;30723;51.206;3.326;2022-11-20T15:42:58;9.70;99.90
44990;DHT22;30723;51.206;3.326;2022-11-20T15:48:24;9.80;99.90
44990;DHT22;30723;51.206;3.326;2022-11-20T15:53:22;9.90;99.90
44990;DHT22;30723;51.206;3.326;2022-11-20T15:55:49;10.00;99.90
44990;DHT22;30723;51.206;3.326;2022-11-20T15:58:15;10.00;99.90
44990;DHT22;30723;51.206;3.326;2022-11-20T16:00:44;10.00;99.90
44990;DHT22;30723;51.206;3.326;2022-11-20T16:03:12;10.00;99.90
44990;DHT22;30723;51.206;3.326;2022-11-20T16:05:38;9.90;99.90
44990;DHT22;30723;51.206;3.326;2022-11-20T16:08:04;9.80;99.90
44990;DHT22;30723;51.206;3.326;2022-11-20T16:10:30;9.70;99.90
44990;DHT22;30723;51.206;3.326;2022-11-20T16:12:56;9.70;99.90
44990;DHT22;30723;51.206;3.326;2022-11-20T16:15:40;9.70;99.90
44990;DHT22;30723;51.206;3.326;2022-11-20T16:18:14;9.60;99.90
44990;DHT22;30723;51.206;3.326;2022-11-20T16:20:41;9.60;99.90
44990;DHT22;30723;51.206;3.326;2022-11-20T16:23:07;9.60;99.90
44990;DHT22;30723;51.206;3.326;2022-11-20T16:25:33;9.70;99.90
44990;DHT22;30723;51.206;3.326;2022-11-20T16:27:59;9.70;99.90
44990;DHT22;30723;51.206;3.326;2022-11-20T16:30:25;9.70;99.90
44990;DHT22;30723;51.206;3.326;2022-11-20T16:32:50;9.70;99.90
44990;DHT22;30723;51.206;3.326;2022-11-20T16:35:16;9.70;99.90
44990;DHT22;30723;51.206;3.326;2022-11-20T16:37:42;9.80;99.90
44990;DHT22;30723;51.206;3.326;2022-11-20T16:40:09;9.80;99.90
44990;DHT22;30723;51.206;3.326;2022-11-20T16:42:36;9.70;99.90
44990;DHT22;30723;51.206;3.326;2022-11-20T16:45:03;9.60;99.90
44990;DHT22;30723;51.206;3.326;2022-11-20T16:47:33;9.50;99.90
44990;DHT22;30723;51.206;3.326;2022-11-20T16:50:00;9.40;99.90
44990;DHT22;30723;51.206;3.326;2022-11-20T16:52:25;9.30;99.90
44990;DHT22;30723;51.206;3.326;2022-11-20T16:54:51;9.30;99.90
44990;DHT22;30723;51.206;3.326;2022-11-20T16:57:17;9.30;99.90
44990;DHT22;30723;51.206;3.326;2022-11-20T16:59:42;9.30;99.90
44990;DHT22;30723;51.206;3.326;2022-11-20T17:02:09;9.40;99.90
44990;DHT22;30723;51.206;3.326;2022-11-20T17:04:36;9.40;99.90
44990;DHT22;30723;51.206;3.326;2022-11-20T17:07:02;9.40;99.90
44990;DHT22;30723;51.206;3.326;2022-11-20T17:09:28;9.40;99.90
44990;DHT22;30723;51.206;3.326;2022-11-20T17:11:54;9.40;99.90
44990;DHT22;30723;51.206;3.326;2022-11-20T17:14:20;9.40;99.90
44990;DHT22;30723;51.206;3.326;2022-11-20T17:16:46;9.40;99.90
44990;DHT22;30723;51.206;3.326;2022-11-20T17:19:12;9.40;99.90
44990;DHT22;30723;51.206;3.326;2022-11-20T17:21:38;9.40;99.90
44990;DHT22;30723;51.206;3.326;2022-11-20T17:24:06;9.30;99.90
44990;DHT22;30723;51.206;3.326;2022-11-20T17:26:34;9.40;99.90
44990;DHT22;30723;51.206;3.326;2022-11-20T17:29:03;9.30;99.90
44990;DHT22;30723;51.206;3.326;2022-11-20T17:31:30;9.40;99.90
44990;DHT22;30723;51.206;3.326;2022-11-20T17:33:56;9.30;99.90
44990;DHT22;30723;51.206;3.326;2022-11-20T17:36:24;9.40;99.90